sensor_id;sensor_type;location;lat;lon;timestamp;pressure;altitude;pressure_sealevel;temperature;humidity
38558;BME280;24333;42.626;23.308;2022-08-01T00:01:50;92254.88;;;17.25;75.31
38558;BME280;24333;42.626;23.308;2022-08-01T00:10:15;92238.25;;;17.05;75.27
38558;BME280;24333;42.626;23.308;2022-08-01T00:12:42;92233.97;;;17.00;74.36
38558;BME280;24333;42.626;23.308;2022-08-01T00:15:10;92231.66;;;16.99;73.78
38558;BME280;24333;42.626;23.308;2022-08-01T00:17:37;92237.53;;;16.97;73.46
38558;BME280;24333;42.626;23.308;2022-08-01T00:20:04;92242.25;;;16.97;70.47
38558;BME280;24333;42.626;23.308;2022-08-01T00:38:02;92220.63;;;16.95;65.92
38558;BME280;24333;42.626;23.308;2022-08-01T00:40:30;92205.88;;;16.82;64.77
38558;BME280;24333;42.626;23.308;2022-08-01T00:42:58;92198.00;;;16.84;61.44
38558;BME280;24333;42.626;23.308;2022-08-01T00:45:27;92210.09;;;16.90;63.46
38558;BME280;24333;42.626;23.308;2022-08-01T00:47:53;92233.94;;;17.04;62.88
38558;BME280;24333;42.626;23.308;2022-08-01T00:50:44;92233.13;;;17.03;63.52
38558;BME280;24333;42.626;23.308;2022-08-01T00:53:31;92203.94;;;16.79;64.88
38558;BME280;24333;42.626;23.308;2022-08-01T00:56:01;92225.72;;;16.97;64.89
38558;BME280;24333;42.626;23.308;2022-08-01T00:58:27;92223.50;;;16.88;64.58
38558;BME280;24333;42.626;23.308;2022-08-01T01:12:43;92211.06;;;16.76;65.89
38558;BME280;24333;42.626;23.308;2022-08-01T01:15:30;92218.88;;;16.81;67.88
38558;BME280;24333;42.626;23.308;2022-08-01T02:08:31;92192.53;;;16.49;57.14
38558;BME280;24333;42.626;23.308;2022-08-01T02:18:44;92157.28;;;16.40;55.92
38558;BME280;24333;42.626;23.308;2022-08-01T02:26:27;92166.56;;;16.54;54.52
38558;BME280;24333;42.626;23.308;2022-08-01T02:28:59;92159.41;;;16.56;55.58
38558;BME280;24333;42.626;23.308;2022-08-01T02:31:31;92164.09;;;16.59;55.62
38558;BME280;24333;42.626;23.308;2022-08-01T02:34:01;92146.81;;;16.59;54.76
38558;BME280;24333;42.626;23.308;2022-08-01T02:36:52;92171.28;;;16.81;53.34
38558;BME280;24333;42.626;23.308;2022-08-01T02:42:01;92175.50;;;16.89;54.46
38558;BME280;24333;42.626;23.308;2022-08-01T02:44:34;92164.47;;;16.89;52.94
38558;BME280;24333;42.626;23.308;2022-08-01T02:47:03;92165.25;;;16.89;53.48
38558;BME280;24333;42.626;23.308;2022-08-01T02:49:39;92160.94;;;16.88;53.86
38558;BME280;24333;42.626;23.308;2022-08-01T02:52:08;92157.78;;;16.90;55.68
38558;BME280;24333;42.626;23.308;2022-08-01T02:57:20;92151.63;;;16.79;55.87
38558;BME280;24333;42.626;23.308;2022-08-01T02:59:49;92145.13;;;16.69;55.40
38558;BME280;24333;42.626;23.308;2022-08-01T03:02:16;92145.03;;;16.72;56.29
38558;BME280;24333;42.626;23.308;2022-08-01T03:04:42;92150.53;;;16.72;55.44
38558;BME280;24333;42.626;23.308;2022-08-01T03:07:10;92146.25;;;16.71;56.28
38558;BME280;24333;42.626;23.308;2022-08-01T03:18:57;92168.72;;;16.66;57.54
38558;BME280;24333;42.626;23.308;2022-08-01T03:21:34;92142.97;;;16.53;58.61
38558;BME280;24333;42.626;23.308;2022-08-01T03:24:05;92154.25;;;16.62;58.27
38558;BME280;24333;42.626;23.308;2022-08-01T03:26:35;92167.91;;;16.69;57.79
38558;BME280;24333;42.626;23.308;2022-08-01T03:29:24;92164.69;;;16.74;58.75
38558;BME280;24333;42.626;23.308;2022-08-01T03:31:57;92171.38;;;16.73;58.56
38558;BME280;24333;42.626;23.308;2022-08-01T03:37:10;92161.16;;;16.74;58.52
38558;BME280;24333;42.626;23.308;2022-08-01T03:45:47;92164.41;;;16.92;59.51
38558;BME280;24333;42.626;23.308;2022-08-01T03:48:19;92149.63;;;16.83;59.73
38558;BME280;24333;42.626;23.308;2022-08-01T03:50:50;92144.41;;;16.88;58.21
38558;BME280;24333;42.626;23.308;2022-08-01T03:53:24;92161.16;;;17.01;56.44
38558;BME280;24333;42.626;23.308;2022-08-01T03:55:52;92149.31;;;17.04;58.06
38558;BME280;24333;42.626;23.308;2022-08-01T04:00:55;92145.72;;;17.08;57.12
38558;BME280;24333;42.626;23.308;2022-08-01T04:03:25;92173.28;;;17.31;57.17
38558;BME280;24333;42.626;23.308;2022-08-01T04:05:52;92137.59;;;17.24;56.36
38558;BME280;24333;42.626;23.308;2022-08-01T04:15:04;92163.88;;;17.53;57.41
38558;BME280;24333;42.626;23.308;2022-08-01T04:17:36;92161.97;;;17.49;57.62
38558;BME280;24333;42.626;23.308;2022-08-01T04:20:04;92163.75;;;17.60;56.73
38558;BME280;24333;42.626;23.308;2022-08-01T04:22:33;92141.84;;;17.53;55.67
38558;BME280;24333;42.626;23.308;2022-08-01T04:25:04;92160.81;;;17.71;57.29
38558;BME280;24333;42.626;23.308;2022-08-01T05:15:21;92143.34;;;18.58;52.45
38558;BME280;24333;42.626;23.308;2022-08-01T05:17:48;92140.88;;;18.64;52.86
38558;BME280;24333;42.626;23.308;2022-08-01T05:20:29;92133.00;;;18.62;52.61
38558;BME280;24333;42.626;23.308;2022-08-01T05:23:04;92160.06;;;18.88;52.38
38558;BME280;24333;42.626;23.308;2022-08-01T05:25:33;92136.47;;;18.67;52.86
38558;BME280;24333;42.626;23.308;2022-08-01T05:33:13;92119.94;;;18.83;53.38
38558;BME280;24333;42.626;23.308;2022-08-01T05:35:39;92139.63;;;18.85;52.44
38558;BME280;24333;42.626;23.308;2022-08-01T05:38:06;92152.84;;;18.94;52.61
38558;BME280;24333;42.626;23.308;2022-08-01T05:40:35;92156.31;;;18.98;50.85
38558;BME280;24333;42.626;23.308;2022-08-01T05:51:07;92132.63;;;18.81;52.60
38558;BME280;24333;42.626;23.308;2022-08-01T05:53:34;92140.31;;;18.89;53.52
38558;BME280;24333;42.626;23.308;2022-08-01T05:56:01;92162.66;;;19.15;53.73
38558;BME280;24333;42.626;23.308;2022-08-01T05:58:27;92169.63;;;19.20;53.07
38558;BME280;24333;42.626;23.308;2022-08-01T06:01:42;92164.53;;;19.18;52.80
38558;BME280;24333;42.626;23.308;2022-08-01T06:04:13;92156.84;;;19.26;53.79
38558;BME280;24333;42.626;23.308;2022-08-01T06:07:22;92158.44;;;19.27;54.35
38558;BME280;24333;42.626;23.308;2022-08-01T06:09:48;92146.84;;;19.16;52.28
38558;BME280;24333;42.626;23.308;2022-08-01T06:28:33;92176.72;;;19.38;54.30
38558;BME280;24333;42.626;23.308;2022-08-01T08:11:51;92165.16;;;21.16;50.90
38558;BME280;24333;42.626;23.308;2022-08-01T08:14:17;92162.34;;;20.77;51.35
38558;BME280;24333;42.626;23.308;2022-08-01T08:16:45;92172.28;;;20.91;52.51
38558;BME280;24333;42.626;23.308;2022-08-01T08:19:11;92149.41;;;21.00;52.75
38558;BME280;24333;42.626;23.308;2022-08-01T09:13:11;92139.88;;;21.01;50.26
38558;BME280;24333;42.626;23.308;2022-08-01T09:21:07;92143.22;;;21.22;49.49
38558;BME280;24333;42.626;23.308;2022-08-01T09:23:48;92128.88;;;21.36;50.11
38558;BME280;24333;42.626;23.308;2022-08-01T09:26:16;92125.56;;;21.42;49.19
38558;BME280;24333;42.626;23.308;2022-08-01T09:28:45;92124.78;;;21.41;49.48
38558;BME280;24333;42.626;23.308;2022-08-01T09:31:15;92137.50;;;21.51;50.03
38558;BME280;24333;42.626;23.308;2022-08-01T09:33:51;92148.81;;;21.57;50.71
38558;BME280;24333;42.626;23.308;2022-08-01T10:20:57;92122.19;;;24.78;43.39
38558;BME280;24333;42.626;23.308;2022-08-01T10:23:51;92117.53;;;24.75;43.24
38558;BME280;24333;42.626;23.308;2022-08-01T10:26:18;92117.75;;;25.05;42.60
38558;BME280;24333;42.626;23.308;2022-08-01T10:28:44;92111.97;;;25.18;42.81
38558;BME280;24333;42.626;23.308;2022-08-01T10:37:57;92105.28;;;24.81;41.16
38558;BME280;24333;42.626;23.308;2022-08-01T10:40:24;92122.00;;;24.81;40.59
38558;BME280;24333;42.626;23.308;2022-08-01T10:42:51;92121.19;;;25.00;41.25
38558;BME280;24333;42.626;23.308;2022-08-01T10:45:17;92117.50;;;25.27;39.76
38558;BME280;24333;42.626;23.308;2022-08-01T10:47:53;92122.81;;;25.83;42.17
38558;BME280;24333;42.626;23.308;2022-08-01T10:50:49;92129.88;;;25.93;41.17
38558;BME280;24333;42.626;23.308;2022-08-01T10:58:20;92102.84;;;25.51;38.91
38558;BME280;24333;42.626;23.308;2022-08-01T11:00:45;92097.28;;;25.08;40.54
38558;BME280;24333;42.626;23.308;2022-08-01T11:03:10;92100.16;;;25.23;39.93
38558;BME280;24333;42.626;23.308;2022-08-01T11:05:36;92095.94;;;25.03;41.00
38558;BME280;24333;42.626;23.308;2022-08-01T11:08:21;92094.19;;;25.49;41.27
38558;BME280;24333;42.626;23.308;2022-08-01T11:10:46;92093.25;;;25.43;40.52
38558;BME280;24333;42.626;23.308;2022-08-01T11:13:12;92104.03;;;25.59;40.54
38558;BME280;24333;42.626;23.308;2022-08-01T11:15:39;92094.59;;;25.81;40.59
38558;BME280;24333;42.626;23.308;2022-08-01T11:20:57;92100.06;;;26.39;38.19
38558;BME280;24333;42.626;23.308;2022-08-01T11:23:23;92105.06;;;26.35;38.12
38558;BME280;24333;42.626;23.308;2022-08-01T11:30:47;92084.94;;;26.46;38.78
38558;BME280;24333;42.626;23.308;2022-08-01T11:33:15;92088.22;;;25.80;40.31
38558;BME280;24333;42.626;23.308;2022-08-01T11:41:28;92091.25;;;24.57;42.43
38558;BME280;24333;42.626;23.308;2022-08-01T13:38:06;92053.22;;;22.92;47.34
38558;BME280;24333;42.626;23.308;2022-08-01T13:40:35;92059.09;;;22.94;46.21
38558;BME280;24333;42.626;23.308;2022-08-01T13:43:09;92060.31;;;22.93;46.25
38558;BME280;24333;42.626;23.308;2022-08-01T13:45:56;92060.06;;;23.09;46.28
38558;BME280;24333;42.626;23.308;2022-08-01T13:48:23;92058.16;;;22.97;47.32
38558;BME280;24333;42.626;23.308;2022-08-01T13:50:49;92066.84;;;23.08;46.74
38558;BME280;24333;42.626;23.308;2022-08-01T14:09:11;92049.94;;;23.25;46.69
38558;BME280;24333;42.626;23.308;2022-08-01T14:12:04;92045.31;;;23.31;47.54
38558;BME280;24333;42.626;23.308;2022-08-01T14:14:33;92037.53;;;23.17;47.21
38558;BME280;24333;42.626;23.308;2022-08-01T14:17:23;92053.53;;;23.35;47.01
38558;BME280;24333;42.626;23.308;2022-08-01T14:20:10;92039.44;;;23.29;47.41
38558;BME280;24333;42.626;23.308;2022-08-01T14:22:40;92046.06;;;23.32;46.56
38558;BME280;24333;42.626;23.308;2022-08-01T14:25:06;92054.72;;;23.24;46.53
38558;BME280;24333;42.626;23.308;2022-08-01T14:27:33;92033.84;;;23.20;46.27
38558;BME280;24333;42.626;23.308;2022-08-01T14:58:28;92057.69;;;23.39;46.82
38558;BME280;24333;42.626;23.308;2022-08-01T15:01:00;92051.50;;;23.45;45.87
38558;BME280;24333;42.626;23.308;2022-08-01T15:03:28;92060.63;;;23.64;47.70
38558;BME280;24333;42.626;23.308;2022-08-01T15:05:54;92075.66;;;23.76;46.72
38558;BME280;24333;42.626;23.308;2022-08-01T15:08:20;92063.28;;;23.77;47.08
38558;BME280;24333;42.626;23.308;2022-08-01T15:10:46;92071.50;;;23.71;46.13
38558;BME280;24333;42.626;23.308;2022-08-01T15:13:21;92051.22;;;23.52;46.11
38558;BME280;24333;42.626;23.308;2022-08-01T15:15:47;92081.06;;;23.70;46.36
38558;BME280;24333;42.626;23.308;2022-08-01T15:18:13;92076.75;;;23.69;46.89
38558;BME280;24333;42.626;23.308;2022-08-01T15:20:39;92071.31;;;23.75;46.53
38558;BME280;24333;42.626;23.308;2022-08-01T15:23:06;92068.84;;;23.86;47.62
38558;BME280;24333;42.626;23.308;2022-08-01T15:25:32;92049.97;;;23.81;47.24
38558;BME280;24333;42.626;23.308;2022-08-01T15:28:00;92049.38;;;23.95;46.88
38558;BME280;24333;42.626;23.308;2022-08-01T15:30:46;92055.56;;;24.09;47.79
38558;BME280;24333;42.626;23.308;2022-08-01T15:33:14;92053.22;;;24.26;45.46
38558;BME280;24333;42.626;23.308;2022-08-01T15:35:48;92067.88;;;24.45;47.13
38558;BME280;24333;42.626;23.308;2022-08-01T15:38:30;92065.41;;;24.47;44.88
38558;BME280;24333;42.626;23.308;2022-08-01T15:41:06;92075.75;;;24.56;44.43
38558;BME280;24333;42.626;23.308;2022-08-01T15:43:32;92081.06;;;24.45;43.91
38558;BME280;24333;42.626;23.308;2022-08-01T15:46:00;92055.25;;;24.25;44.85
38558;BME280;24333;42.626;23.308;2022-08-01T15:48:29;92075.66;;;24.32;44.36
38558;BME280;24333;42.626;23.308;2022-08-01T16:10:24;92075.16;;;23.40;45.74
38558;BME280;24333;42.626;23.308;2022-08-01T16:12:50;92073.75;;;23.35;47.16
38558;BME280;24333;42.626;23.308;2022-08-01T16:15:16;92077.13;;;23.30;46.78
38558;BME280;24333;42.626;23.308;2022-08-01T16:17:41;92067.84;;;23.24;46.63
38558;BME280;24333;42.626;23.308;2022-08-01T16:20:07;92069.34;;;23.16;46.94
38558;BME280;24333;42.626;23.308;2022-08-01T16:22:33;92073.03;;;23.13;47.25
38558;BME280;24333;42.626;23.308;2022-08-01T16:25:13;92079.06;;;23.11;47.99
38558;BME280;24333;42.626;23.308;2022-08-01T16:27:39;92083.84;;;23.10;48.68
38558;BME280;24333;42.626;23.308;2022-08-01T16:30:04;92072.88;;;23.07;48.79
38558;BME280;24333;42.626;23.308;2022-08-01T16:32:30;92077.34;;;23.04;47.58
38558;BME280;24333;42.626;23.308;2022-08-01T16:34:56;92072.09;;;23.06;48.07
38558;BME280;24333;42.626;23.308;2022-08-01T16:37:42;92072.72;;;23.10;48.38
38558;BME280;24333;42.626;23.308;2022-08-01T16:40:25;92070.72;;;23.11;47.35
38558;BME280;24333;42.626;23.308;2022-08-01T16:42:50;92062.53;;;23.07;48.23
38558;BME280;24333;42.626;23.308;2022-08-01T16:45:16;92069.00;;;23.04;47.04
38558;BME280;24333;42.626;23.308;2022-08-01T16:47:45;92080.75;;;23.08;47.29
38558;BME280;24333;42.626;23.308;2022-08-01T16:50:11;92071.94;;;23.01;49.09
38558;BME280;24333;42.626;23.308;2022-08-01T16:52:36;92069.28;;;22.97;48.80
38558;BME280;24333;42.626;23.308;2022-08-01T16:55:02;92072.50;;;22.95;49.23
38558;BME280;24333;42.626;23.308;2022-08-01T16:57:33;92080.50;;;22.84;47.54
38558;BME280;24333;42.626;23.308;2022-08-01T17:00:11;92087.28;;;22.83;49.43
38558;BME280;24333;42.626;23.308;2022-08-01T17:02:38;92094.09;;;22.82;48.88
38558;BME280;24333;42.626;23.308;2022-08-01T17:05:05;92081.19;;;22.66;48.93
38558;BME280;24333;42.626;23.308;2022-08-01T17:07:31;92101.28;;;22.70;48.89
38558;BME280;24333;42.626;23.308;2022-08-01T17:09:56;92095.22;;;22.62;47.80
38558;BME280;24333;42.626;23.308;2022-08-01T17:12:22;92096.13;;;22.59;49.38
38558;BME280;24333;42.626;23.308;2022-08-01T17:14:48;92092.06;;;22.51;48.92
38558;BME280;24333;42.626;23.308;2022-08-01T17:17:13;92092.91;;;22.38;49.26
38558;BME280;24333;42.626;23.308;2022-08-01T17:19:39;92102.59;;;22.34;48.16
38558;BME280;24333;42.626;23.308;2022-08-01T17:22:04;92102.22;;;22.22;47.33
38558;BME280;24333;42.626;23.308;2022-08-01T17:24:30;92102.50;;;22.15;47.38
38558;BME280;24333;42.626;23.308;2022-08-01T17:26:55;92095.88;;;22.00;47.81
38558;BME280;24333;42.626;23.308;2022-08-01T17:29:21;92101.69;;;21.92;47.79
38558;BME280;24333;42.626;23.308;2022-08-01T17:31:46;92115.88;;;21.94;47.01
38558;BME280;24333;42.626;23.308;2022-08-01T17:34:12;92096.19;;;21.79;47.47
38558;BME280;24333;42.626;23.308;2022-08-01T17:36:37;92111.44;;;21.75;45.52
38558;BME280;24333;42.626;23.308;2022-08-01T17:39:03;92102.66;;;21.63;46.43
38558;BME280;24333;42.626;23.308;2022-08-01T18:12:53;92156.41;;;21.18;46.12
38558;BME280;24333;42.626;23.308;2022-08-01T18:15:18;92144.66;;;21.14;46.43
38558;BME280;24333;42.626;23.308;2022-08-01T18:17:44;92143.31;;;21.18;47.09
38558;BME280;24333;42.626;23.308;2022-08-01T18:20:10;92161.41;;;21.23;46.28
38558;BME280;24333;42.626;23.308;2022-08-01T18:22:35;92169.72;;;21.23;48.08
38558;BME280;24333;42.626;23.308;2022-08-01T18:27:36;92166.94;;;21.10;47.68
38558;BME280;24333;42.626;23.308;2022-08-01T18:30:04;92177.94;;;21.14;46.60
38558;BME280;24333;42.626;23.308;2022-08-01T18:32:31;92167.59;;;21.01;47.73
38558;BME280;24333;42.626;23.308;2022-08-01T21:25:24;92221.94;;;17.89;75.57
38558;BME280;24333;42.626;23.308;2022-08-01T21:27:52;92236.66;;;18.06;73.41
38558;BME280;24333;42.626;23.308;2022-08-01T21:30:20;92220.66;;;17.94;73.25
38558;BME280;24333;42.626;23.308;2022-08-01T21:32:55;92212.81;;;17.92;73.11
38558;BME280;24333;42.626;23.308;2022-08-01T21:35:23;92215.59;;;17.92;73.89
38558;BME280;24333;42.626;23.308;2022-08-01T21:38:16;92244.78;;;18.14;73.12
38558;BME280;24333;42.626;23.308;2022-08-01T21:41:01;92228.09;;;17.97;72.21
38558;BME280;24333;42.626;23.308;2022-08-01T21:43:32;92226.06;;;18.01;71.81
38558;BME280;24333;42.626;23.308;2022-08-01T21:46:03;92224.13;;;17.98;72.25
38558;BME280;24333;42.626;23.308;2022-08-01T22:35:14;92198.16;;;18.19;64.51
38558;BME280;24333;42.626;23.308;2022-08-01T22:40:26;92202.84;;;18.23;64.02
38558;BME280;24333;42.626;23.308;2022-08-01T22:42:54;92191.88;;;18.19;61.15
38558;BME280;24333;42.626;23.308;2022-08-01T22:51:03;92192.44;;;18.30;61.69
38558;BME280;24333;42.626;23.308;2022-08-01T23:32:34;92157.75;;;17.65;65.34
